Edward Cornwallis — CGJV — position and weather

sailwx.info

Track history (hours):
 
Tides and Currents Weather Stations Pressure Air Temp Water Temp Dewpoint Dewpoint Depression Visibility Wind Speed Wind Dir Waves Ship Positions

Edward Cornwallis

Last reported at 2015-May-07 09:28 UTC. Time now 2015-May-07 09:40 UTC.
Position N 47°34' W 052°42'.

Length 83 m; draft 6 m.

Type: SAR. MMSI: 316020000.

Date/timePositionNaut miles runAvg speedWind from/ knotsBaromVisibWave heightAir tempDewpointWater temp
2015-May-07 09:28N 47°34' W 052°42'0 0.2
2015-May-07 08:28N 47°34' W 052°42'0 0.0
2015-May-07 07:22N 47°34' W 052°42'0 0.0
2015-May-07 06:28N 47°34' W 052°42'0 0.0
2015-May-07 05:31N 47°34' W 052°42'0 0.0
2015-May-07 04:28N 47°34' W 052°42'0 0.0
2015-May-07 03:31N 47°34' W 052°42'0 0.0
2015-May-07 02:31N 47°34' W 052°42'0 0.0
2015-May-07 01:31N 47°34' W 052°42'0 0.0
2015-May-07 00:31N 47°34' W 052°42'0 0.0
2015-May-06 23:31N 47°34' W 052°42'0 0.0
2015-May-06 22:31N 47°34' W 052°42'0 0.0
2015-May-06 21:31N 47°34' W 052°42'0 0.0
2015-May-06 20:31N 47°34' W 052°42'0 0.0
2015-May-06 19:25N 47°34' W 052°42'0 0.0
2015-May-06 18:31N 47°34' W 052°42'0 0.0
2015-May-06 17:28N 47°34' W 052°42'0 0.0
2015-May-06 15:10N 47°34' W 052°42'0 0.0
2015-May-06 14:31N 47°34' W 052°42'0 0.0
2015-May-06 13:10N 47°34' W 052°42'0 0.0
2015-May-06 12:04N 47°34' W 052°42'0 0.0
2015-May-06 11:10N 47°34' W 052°42'0 0.0
2015-May-06 10:22N 47°34' W 052°42'0 0.0
2015-May-06 09:16N 47°34' W 052°42'0 0.0
2015-May-06 08:28N 47°34' W 052°42'0 0.0
2015-May-06 06:28N 47°34' W 052°42'0 0.0
2015-May-06 05:28N 47°34' W 052°42'0 0.0
2015-May-06 04:19N 47°34' W 052°42'0 0.0
2015-May-06 03:28N 47°34' W 052°42'0 0.0
2015-May-06 02:31N 47°34' W 052°42'0 0.0
2015-May-06 01:31N 47°34' W 052°42'0 0.2
2015-May-06 00:28N 47°34' W 052°42'0 0.0
2015-May-05 23:31N 47°34' W 052°42'0 0.0
2015-May-05 22:31N 47°34' W 052°42'0 0.0
2015-May-05 21:22N 47°34' W 052°42'0 0.0
2015-May-05 20:31N 47°34' W 052°42'0 0.2
2015-May-05 19:29N 47°34' W 052°42'1 0.6
2015-May-05 18:30N 47°33' W 052°42'0 0.0
2015-May-05 17:21N 47°33' W 052°42'0 0.0
2015-May-05 16:33N 47°33' W 052°42'0 0.0
2015-May-05 15:06N 47°33' W 052°42'0 0.0
2015-May-05 14:33N 47°33' W 052°42'0 0.0
2015-May-05 13:33N 47°33' W 052°42'0 0.0
2015-May-05 12:03N 47°33' W 052°42'0 0.0
2015-May-05 10:09N 47°33' W 052°42'0 0.0
2015-May-05 09:27N 47°33' W 052°42'3 2.9
2015-May-05 08:31N 47°35' W 052°39'9 6.0
2015-May-05 07:04N 47°43' W 052°38'  
2015-May-01 12:07N 47°45' W 052°31'4 7.1
2015-May-01 11:33N 47°42' W 052°33'7 7.2
2015-May-01 10:31N 47°35' W 052°38'3 2.9
2015-May-01 09:25N 47°33' W 052°42'0 0.0
2015-May-01 08:28N 47°33' W 052°42'0 0.0
2015-May-01 07:28N 47°33' W 052°42'0 0.0
2015-May-01 06:34N 47°33' W 052°42'0 0.0
2015-May-01 05:34N 47°33' W 052°42'0 0.0
2015-May-01 04:28N 47°33' W 052°42'0 0.0
2015-May-01 03:33N 47°33' W 052°42'0 0.0
2015-May-01 02:16N 47°33' W 052°42'0 0.0
2015-May-01 01:34N 47°33' W 052°42'0 0.0
2015-May-01 00:24N 47°33' W 052°42'0 0.0
2015-Apr-30 23:31N 47°33' W 052°42'0 0.0
2015-Apr-30 22:30N 47°33' W 052°42'0 0.0
2015-Apr-30 21:33N 47°33' W 052°42'0 0.0
2015-Apr-30 20:27N 47°33' W 052°42'0 0.0
2015-Apr-30 19:30N 47°33' W 052°42'0 0.0
2015-Apr-30 18:30N 47°33' W 052°42'0 0.0
2015-Apr-30 17:30N 47°33' W 052°42'0 0.0
2015-Apr-30 16:30N 47°33' W 052°42'0 0.0
2015-Apr-30 15:30N 47°33' W 052°42'0 0.0
2015-Apr-30 14:30N 47°33' W 052°42'0 0.0
2015-Apr-30 13:30N 47°33' W 052°42'0 0.0
2015-Apr-30 12:30N 47°33' W 052°42'0 0.0
2015-Apr-30 11:33N 47°33' W 052°42'0 0.0
2015-Apr-30 10:33N 47°33' W 052°42'0 0.0
2015-Apr-30 09:33N 47°33' W 052°42'0 0.0
2015-Apr-30 08:27N 47°33' W 052°42'0 0.0
2015-Apr-30 07:27N 47°33' W 052°42'0 0.0
2015-Apr-30 06:33N 47°33' W 052°42'0 0.0
2015-Apr-30 05:33N 47°33' W 052°42'0 0.0
2015-Apr-30 04:33N 47°33' W 052°42'0 0.0
2015-Apr-30 03:30N 47°33' W 052°42'0 0.0
2015-Apr-30 02:21N 47°33' W 052°42'0 0.0
2015-Apr-30 01:33N 47°33' W 052°42'0 0.0
2015-Apr-30 00:21N 47°33' W 052°42'0 0.0
2015-Apr-29 23:30N 47°33' W 052°42'0 0.0
2015-Apr-29 22:24N 47°33' W 052°42'0 0.0
2015-Apr-29 21:30N 47°33' W 052°42'0 0.0
2015-Apr-29 20:27N 47°33' W 052°42'0 0.0
2015-Apr-29 19:30N 47°33' W 052°42'0 0.0
2015-Apr-29 18:15N 47°33' W 052°42'0 0.0
2015-Apr-29 17:30N 47°33' W 052°42'0 0.0
2015-Apr-29 16:33N 47°33' W 052°42'16 0.6
2015-Apr-28 13:29N 47°19' W 052°35'1413.5
2015-Apr-28 12:29N 47°32' W 052°34'1413.1
2015-Apr-28 11:27N 47°46' W 052°35'  
Track history (hours):
 
Tides and Currents Weather Stations Pressure Air Temp Water Temp Dewpoint Dewpoint Depression Visibility Wind Speed Wind Dir Waves Ship Positions

Edward Cornwallis

Last reported at 2015-May-07 09:28 UTC. Time now 2015-May-07 09:40 UTC.
Position N 47°34' W 052°42'.

Length 83 m; draft 6 m.

Type: SAR. MMSI: 316020000.

Date/timePositionNaut miles runAvg speedWind from/ knotsBaromVisibWave heightAir tempDewpointWater temp
2015-May-07 09:28N 47°34' W 052°42'0 0.2
2015-May-07 08:28N 47°34' W 052°42'0 0.0
2015-May-07 07:22N 47°34' W 052°42'0 0.0
2015-May-07 06:28N 47°34' W 052°42'0 0.0
2015-May-07 05:31N 47°34' W 052°42'0 0.0
2015-May-07 04:28N 47°34' W 052°42'0 0.0
2015-May-07 03:31N 47°34' W 052°42'0 0.0
2015-May-07 02:31N 47°34' W 052°42'0 0.0
2015-May-07 01:31N 47°34' W 052°42'0 0.0
2015-May-07 00:31N 47°34' W 052°42'0 0.0
2015-May-06 23:31N 47°34' W 052°42'0 0.0
2015-May-06 22:31N 47°34' W 052°42'0 0.0
2015-May-06 21:31N 47°34' W 052°42'0 0.0
2015-May-06 20:31N 47°34' W 052°42'0 0.0
2015-May-06 19:25N 47°34' W 052°42'0 0.0
2015-May-06 18:31N 47°34' W 052°42'0 0.0
2015-May-06 17:28N 47°34' W 052°42'0 0.0
2015-May-06 15:10N 47°34' W 052°42'0 0.0
2015-May-06 14:31N 47°34' W 052°42'0 0.0
2015-May-06 13:10N 47°34' W 052°42'0 0.0
2015-May-06 12:04N 47°34' W 052°42'0 0.0
2015-May-06 11:10N 47°34' W 052°42'0 0.0
2015-May-06 10:22N 47°34' W 052°42'0 0.0
2015-May-06 09:16N 47°34' W 052°42'0 0.0
2015-May-06 08:28N 47°34' W 052°42'0 0.0
2015-May-06 06:28N 47°34' W 052°42'0 0.0
2015-May-06 05:28N 47°34' W 052°42'0 0.0
2015-May-06 04:19N 47°34' W 052°42'0 0.0
2015-May-06 03:28N 47°34' W 052°42'0 0.0
2015-May-06 02:31N 47°34' W 052°42'0 0.0
2015-May-06 01:31N 47°34' W 052°42'0 0.2
2015-May-06 00:28N 47°34' W 052°42'0 0.0
2015-May-05 23:31N 47°34' W 052°42'0 0.0
2015-May-05 22:31N 47°34' W 052°42'0 0.0
2015-May-05 21:22N 47°34' W 052°42'0 0.0
2015-May-05 20:31N 47°34' W 052°42'0 0.2
2015-May-05 19:29N 47°34' W 052°42'1 0.6
2015-May-05 18:30N 47°33' W 052°42'0 0.0
2015-May-05 17:21N 47°33' W 052°42'0 0.0
2015-May-05 16:33N 47°33' W 052°42'0 0.0
2015-May-05 15:06N 47°33' W 052°42'0 0.0
2015-May-05 14:33N 47°33' W 052°42'0 0.0
2015-May-05 13:33N 47°33' W 052°42'0 0.0
2015-May-05 12:03N 47°33' W 052°42'0 0.0
2015-May-05 10:09N 47°33' W 052°42'0 0.0
2015-May-05 09:27N 47°33' W 052°42'3 2.9
2015-May-05 08:31N 47°35' W 052°39'9 6.0
2015-May-05 07:04N 47°43' W 052°38'  
2015-May-01 12:07N 47°45' W 052°31'4 7.1
2015-May-01 11:33N 47°42' W 052°33'7 7.2
2015-May-01 10:31N 47°35' W 052°38'3 2.9
2015-May-01 09:25N 47°33' W 052°42'0 0.0
2015-May-01 08:28N 47°33' W 052°42'0 0.0
2015-May-01 07:28N 47°33' W 052°42'0 0.0
2015-May-01 06:34N 47°33' W 052°42'0 0.0
2015-May-01 05:34N 47°33' W 052°42'0 0.0
2015-May-01 04:28N 47°33' W 052°42'0 0.0
2015-May-01 03:33N 47°33' W 052°42'0 0.0
2015-May-01 02:16N 47°33' W 052°42'0 0.0
2015-May-01 01:34N 47°33' W 052°42'0 0.0
2015-May-01 00:24N 47°33' W 052°42'0 0.0
2015-Apr-30 23:31N 47°33' W 052°42'0 0.0
2015-Apr-30 22:30N 47°33' W 052°42'0 0.0
2015-Apr-30 21:33N 47°33' W 052°42'0 0.0
2015-Apr-30 20:27N 47°33' W 052°42'0 0.0
2015-Apr-30 19:30N 47°33' W 052°42'0 0.0
2015-Apr-30 18:30N 47°33' W 052°42'0 0.0
2015-Apr-30 17:30N 47°33' W 052°42'0 0.0
2015-Apr-30 16:30N 47°33' W 052°42'0 0.0
2015-Apr-30 15:30N 47°33' W 052°42'0 0.0
2015-Apr-30 14:30N 47°33' W 052°42'0 0.0
2015-Apr-30 13:30N 47°33' W 052°42'0 0.0
2015-Apr-30 12:30N 47°33' W 052°42'0 0.0
2015-Apr-30 11:33N 47°33' W 052°42'0 0.0
2015-Apr-30 10:33N 47°33' W 052°42'0 0.0
2015-Apr-30 09:33N 47°33' W 052°42'0 0.0
2015-Apr-30 08:27N 47°33' W 052°42'0 0.0
2015-Apr-30 07:27N 47°33' W 052°42'0 0.0
2015-Apr-30 06:33N 47°33' W 052°42'0 0.0
2015-Apr-30 05:33N 47°33' W 052°42'0 0.0
2015-Apr-30 04:33N 47°33' W 052°42'0 0.0
2015-Apr-30 03:30N 47°33' W 052°42'0 0.0
2015-Apr-30 02:21N 47°33' W 052°42'0 0.0
2015-Apr-30 01:33N 47°33' W 052°42'0 0.0
2015-Apr-30 00:21N 47°33' W 052°42'0 0.0
2015-Apr-29 23:30N 47°33' W 052°42'0 0.0
2015-Apr-29 22:24N 47°33' W 052°42'0 0.0
2015-Apr-29 21:30N 47°33' W 052°42'0 0.0
2015-Apr-29 20:27N 47°33' W 052°42'0 0.0
2015-Apr-29 19:30N 47°33' W 052°42'0 0.0
2015-Apr-29 18:15N 47°33' W 052°42'0 0.0
2015-Apr-29 17:30N 47°33' W 052°42'0 0.0
2015-Apr-29 16:33N 47°33' W 052°42'16 0.6
2015-Apr-28 13:29N 47°19' W 052°35'1413.5
2015-Apr-28 12:29N 47°32' W 052°34'1413.1
2015-Apr-28 11:27N 47°46' W 052°35'  

Dump ship's entire track history